Time;durP1;ratioP1;P1;durP2;ratioP2;P2;SDS_P1;SDS_P2;PMS_P1;PMS_P2;Temp;Humidity;BMP_temperature;BMP_pressure;BME280_temperature;BME280_humidity;BME280_pressure;Samples;Min_cycle;Max_cycle;Signal;HPM_P1;HPM_P2
2022/03/04 00:01:53;;;;;;;30.80;17.40;;;0.50;54.80;;;;;;5091534;28;20477;-60
2022/03/04 00:04:18;;;;;;;35.87;18.03;;;0.50;54.80;;;;;;5092165;28;20425;-61
2022/03/04 00:06:44;;;;;;;44.97;20.97;;;0.50;54.90;;;;;;5083741;28;20180;-62
2022/03/04 00:09:09;;;;;;;38.43;19.37;;;0.40;54.80;;;;;;5079513;28;20180;-61
2022/03/04 00:11:35;;;;;;;34.27;18.33;;;0.40;54.90;;;;;;5084491;28;20200;-59
2022/03/04 00:14:01;;;;;;;38.43;19.23;;;0.40;54.90;;;;;;5090620;28;20200;-60
2022/03/04 00:16:26;;;;;;;45.63;19.57;;;0.30;54.90;;;;;;5092262;28;20267;-59
2022/03/04 00:19:08;;;;;;;40.40;20.37;;;0.30;55.00;;;;;;5091060;28;20346;-60
2022/03/04 00:21:35;;;;;;;41.50;20.03;;;0.30;55.00;;;;;;5090583;28;20279;-61
2022/03/04 00:24:01;;;;;;;39.80;19.63;;;0.30;55.10;;;;;;5091848;28;20766;-60
2022/03/04 00:26:27;;;;;;;35.73;19.30;;;0.20;55.20;;;;;;5088593;28;20432;-60
2022/03/04 00:28:52;;;;;;;36.23;19.70;;;0.20;55.20;;;;;;5081266;28;20453;-60
2022/03/04 00:31:18;;;;;;;44.10;21.13;;;0.20;55.20;;;;;;5091066;28;20922;-60
2022/03/04 00:33:43;;;;;;;44.00;20.37;;;0.20;55.20;;;;;;5091354;28;20584;-60
2022/03/04 00:36:09;;;;;;;35.30;18.30;;;0.20;55.20;;;;;;5091108;28;20179;-59
2022/03/04 00:38:35;;;;;;;41.90;19.63;;;0.20;55.30;;;;;;5091705;28;20204;-60
2022/03/04 00:41:00;;;;;;;35.93;18.03;;;0.20;55.20;;;;;;5091135;28;20179;-60
2022/03/04 00:43:26;;;;;;;36.37;19.17;;;0.10;55.10;;;;;;5088292;28;20208;-61
2022/03/04 00:45:52;;;;;;;43.40;19.17;;;0.10;55.20;;;;;;5088625;28;20180;-60
2022/03/04 00:48:17;;;;;;;39.93;19.60;;;0.10;55.20;;;;;;5089999;28;20652;-59
2022/03/04 00:50:43;;;;;;;40.03;20.70;;;0.10;55.30;;;;;;5090350;28;20188;-60
2022/03/04 00:53:09;;;;;;;43.17;19.80;;;0.00;55.70;;;;;;5081784;28;20292;-61
2022/03/04 00:55:38;;;;;;;53.17;20.37;;;0.00;55.30;;;;;;5091521;28;20171;-60
2022/03/04 00:58:07;;;;;;;40.20;19.10;;;0.00;55.50;;;;;;5091758;28;20176;-60
2022/03/04 01:00:35;;;;;;;39.33;20.07;;;0.00;55.50;;;;;;5078575;28;20421;-60
2022/03/04 01:03:02;;;;;;;42.23;19.77;;;-0.10;55.50;;;;;;5084707;28;20495;-60
2022/03/04 01:05:28;;;;;;;40.20;20.60;;;-0.10;55.60;;;;;;5091253;28;20418;-59
2022/03/04 01:07:54;;;;;;;38.97;18.77;;;-0.20;55.60;;;;;;5090913;28;20763;-60
2022/03/04 01:10:20;;;;;;;43.73;21.13;;;-0.20;55.60;;;;;;5090294;28;20220;-60
2022/03/04 01:12:46;;;;;;;40.10;19.13;;;-0.20;55.70;;;;;;5089668;28;20207;-60
2022/03/04 01:15:12;;;;;;;43.13;21.07;;;-0.20;55.80;;;;;;5089563;28;20614;-60
2022/03/04 01:17:38;;;;;;;43.77;20.80;;;-0.30;55.70;;;;;;5089124;28;20788;-60
2022/03/04 01:20:05;;;;;;;43.73;19.70;;;-0.30;56.30;;;;;;5087803;28;20457;-60
2022/03/04 01:22:31;;;;;;;35.27;19.10;;;-0.30;55.80;;;;;;5082289;28;20196;-60
2022/03/04 01:24:56;;;;;;;39.73;19.80;;;-0.30;55.80;;;;;;5089416;28;20420;-60
2022/03/04 01:27:22;;;;;;;35.47;18.30;;;-0.40;55.80;;;;;;5088774;28;20850;-60
2022/03/04 01:29:48;;;;;;;34.93;18.10;;;-0.50;55.80;;;;;;5090892;28;20199;-60
2022/03/04 01:32:14;;;;;;;30.97;17.30;;;-0.50;55.80;;;;;;5085935;28;20455;-60
2022/03/04 01:34:39;;;;;;;29.90;15.97;;;-0.50;55.80;;;;;;5088595;28;20224;-60
2022/03/04 01:37:06;;;;;;;32.30;16.17;;;-0.60;55.60;;;;;;5089625;28;20179;-60
2022/03/04 01:39:32;;;;;;;39.20;17.50;;;-0.60;55.70;;;;;;5090058;28;20325;-60
2022/03/04 01:41:57;;;;;;;30.17;16.70;;;-0.70;55.90;;;;;;5086274;28;21012;-60
2022/03/04 01:44:23;;;;;;;37.97;18.87;;;-0.70;56.10;;;;;;5087181;28;20270;-60
2022/03/04 01:46:49;;;;;;;35.97;18.07;;;-0.70;56.40;;;;;;5088868;28;20250;-60
2022/03/04 01:49:14;;;;;;;27.33;14.83;;;-0.80;56.40;;;;;;5090741;28;20641;-60
2022/03/04 01:51:40;;;;;;;37.03;17.33;;;-0.80;56.30;;;;;;5089894;28;20195;-60
2022/03/04 01:54:06;;;;;;;29.17;16.40;;;-0.80;56.30;;;;;;5086702;28;20797;-60
2022/03/04 01:56:32;;;;;;;33.57;16.33;;;-0.80;56.40;;;;;;5086178;28;20172;-59
2022/03/04 01:58:57;;;;;;;36.87;16.83;;;-0.90;56.30;;;;;;5092779;28;20500;-61
2022/03/04 02:01:23;;;;;;;36.00;17.50;;;-0.90;56.40;;;;;;5089049;28;20664;-61
2022/03/04 02:03:49;;;;;;;32.80;15.80;;;-0.90;56.50;;;;;;5085085;28;20233;-60
2022/03/04 02:06:15;;;;;;;33.13;16.93;;;-0.90;56.50;;;;;;5090226;28;20660;-60
2022/03/04 02:08:41;;;;;;;36.33;17.77;;;-0.90;56.40;;;;;;5085329;28;20421;-60
2022/03/04 02:11:07;;;;;;;35.27;17.07;;;-0.90;56.40;;;;;;5088029;28;21107;-60
2022/03/04 02:13:33;;;;;;;36.33;16.87;;;-1.00;56.30;;;;;;5085868;28;20461;-59
2022/03/04 02:15:59;;;;;;;40.73;18.80;;;-1.00;56.30;;;;;;5089734;28;20241;-59
2022/03/04 02:18:25;;;;;;;39.77;17.07;;;-1.10;56.30;;;;;;5089356;28;20813;-59
2022/03/04 02:20:52;;;;;;;34.33;16.70;;;-1.10;56.50;;;;;;5082714;28;20173;-60
2022/03/04 02:23:19;;;;;;;32.17;14.73;;;-1.20;57.00;;;;;;5089910;28;20344;-60
2022/03/04 02:25:49;;;;;;;33.13;16.57;;;-1.20;56.60;;;;;;5089439;28;20421;-58
2022/03/04 02:28:16;;;;;;;36.53;17.30;;;-1.20;56.60;;;;;;5088166;28;20852;-59
2022/03/04 02:30:42;;;;;;;33.00;15.57;;;-1.20;56.70;;;;;;5088383;28;20471;-60
2022/03/04 02:33:08;;;;;;;28.70;15.20;;;-1.30;56.70;;;;;;5089037;28;20461;-60
2022/03/04 02:35:35;;;;;;;34.57;16.60;;;-1.30;56.80;;;;;;5088655;28;20543;-59
2022/03/04 02:38:02;;;;;;;27.43;15.23;;;-1.30;56.90;;;;;;5087426;28;20428;-60
2022/03/04 02:40:28;;;;;;;38.60;17.20;;;-1.30;57.10;;;;;;5085297;28;20422;-58
2022/03/04 02:42:54;;;;;;;32.03;16.40;;;-1.30;57.20;;;;;;5088645;28;20451;-61
2022/03/04 02:45:20;;;;;;;29.90;16.27;;;-1.40;57.10;;;;;;5088394;28;20516;-61
2022/03/04 02:47:46;;;;;;;30.70;15.53;;;-1.40;57.00;;;;;;5074820;28;20525;-61
2022/03/04 02:50:11;;;;;;;33.60;15.27;;;-1.40;57.10;;;;;;5086652;28;20171;-60
2022/03/04 02:52:37;;;;;;;33.93;16.63;;;-1.40;57.20;;;;;;5087335;28;20778;-61
2022/03/04 02:55:03;;;;;;;34.37;16.47;;;-1.50;57.10;;;;;;5087618;28;20187;-61
2022/03/04 02:57:29;;;;;;;31.03;15.83;;;-1.50;57.30;;;;;;5088960;28;20539;-61
2022/03/04 02:59:55;;;;;;;38.10;15.43;;;-1.60;57.30;;;;;;5087795;28;20447;-58
2022/03/04 03:02:20;;;;;;;38.13;16.03;;;-1.60;57.40;;;;;;5086416;28;20480;-61
2022/03/04 03:04:46;;;;;;;37.57;15.50;;;-1.70;57.50;;;;;;5089341;28;20175;-61
2022/03/04 03:07:11;;;;;;;27.30;15.53;;;-1.80;57.60;;;;;;5088747;28;20175;-60
2022/03/04 03:09:37;;;;;;;32.87;15.57;;;-1.80;57.90;;;;;;5088637;28;20182;-61
2022/03/04 03:12:04;;;;;;;30.03;15.00;;;-1.80;58.10;;;;;;5088056;28;20203;-60
2022/03/04 03:14:30;;;;;;;36.23;15.97;;;-1.80;58.10;;;;;;5085936;28;20512;-61
2022/03/04 03:16:55;;;;;;;31.37;15.53;;;-1.80;58.20;;;;;;5093711;28;20578;-59
2022/03/04 03:19:21;;;;;;;29.40;15.37;;;-1.90;58.10;;;;;;5091884;28;20578;-61
2022/03/04 03:21:47;;;;;;;25.90;14.57;;;-1.90;58.20;;;;;;5093061;28;20968;-61
2022/03/04 03:24:12;;;;;;;27.80;15.60;;;-1.90;58.40;;;;;;5083022;28;20327;-61
2022/03/04 03:26:38;;;;;;;29.00;15.27;;;-1.90;58.40;;;;;;5093486;28;20184;-60
2022/03/04 03:29:04;;;;;;;28.50;14.50;;;-1.90;58.50;;;;;;5091134;28;20181;-61
2022/03/04 03:31:29;;;;;;;30.93;15.03;;;-1.90;58.60;;;;;;5081691;28;20195;-60
2022/03/04 03:33:55;;;;;;;27.97;15.07;;;-2.00;58.80;;;;;;5092354;28;20277;-61
2022/03/04 03:36:21;;;;;;;30.83;15.17;;;-2.00;58.90;;;;;;5092080;28;20234;-61
2022/03/04 03:38:47;;;;;;;32.43;16.27;;;-2.00;58.90;;;;;;5089406;28;20205;-60
2022/03/04 03:41:13;;;;;;;33.13;16.00;;;-2.00;59.00;;;;;;5093365;28;20861;-61
2022/03/04 03:43:40;;;;;;;28.90;14.70;;;-2.00;59.00;;;;;;5093342;28;20446;-59
2022/03/04 03:46:06;;;;;;;29.03;14.20;;;-2.00;59.10;;;;;;5092643;28;20554;-60
2022/03/04 03:48:31;;;;;;;31.30;15.20;;;-2.10;59.00;;;;;;5090465;28;20425;-60
2022/03/04 03:50:57;;;;;;;27.10;15.10;;;-2.10;59.10;;;;;;5092902;28;20174;-60
2022/03/04 03:53:22;;;;;;;33.80;16.37;;;-2.10;59.10;;;;;;5092845;28;20259;-59
2022/03/04 03:55:48;;;;;;;34.33;15.27;;;-2.10;59.20;;;;;;5088887;28;20585;-60
2022/03/04 03:58:14;;;;;;;28.30;15.40;;;-2.10;59.30;;;;;;5080569;28;20221;-60
2022/03/04 04:00:39;;;;;;;30.40;14.47;;;-2.10;59.30;;;;;;5089717;28;20171;-60
2022/03/04 04:03:05;;;;;;;30.27;14.70;;;-2.10;59.30;;;;;;5086121;28;20650;-60
2022/03/04 04:05:30;;;;;;;30.43;15.23;;;-2.10;59.90;;;;;;5088080;28;20183;-60
2022/03/04 04:07:56;;;;;;;34.27;15.40;;;-2.10;59.40;;;;;;5081970;28;20180;-61
2022/03/04 04:10:22;;;;;;;26.17;14.10;;;-2.20;59.20;;;;;;5092016;28;20667;-61
2022/03/04 04:12:48;;;;;;;29.77;14.30;;;-2.20;59.10;;;;;;5091249;28;20458;-60
2022/03/04 04:15:13;;;;;;;29.80;14.73;;;-2.20;59.10;;;;;;5089749;28;20175;-61
2022/03/04 04:17:39;;;;;;;41.47;16.13;;;-2.30;59.10;;;;;;5091854;28;20175;-60
2022/03/04 04:20:06;;;;;;;31.80;15.90;;;-2.30;59.30;;;;;;5090457;28;20167;-60
2022/03/04 04:22:32;;;;;;;36.07;15.63;;;-2.40;59.70;;;;;;5087441;28;20823;-60
2022/03/04 04:24:57;;;;;;;30.10;15.10;;;-2.40;60.40;;;;;;5087123;28;20440;-60
2022/03/04 04:27:23;;;;;;;30.77;15.80;;;-2.40;60.80;;;;;;5091675;28;20663;-61
2022/03/04 04:29:48;;;;;;;35.77;17.03;;;-2.40;61.30;;;;;;5091788;28;20186;-61
2022/03/04 04:32:14;;;;;;;36.30;16.10;;;-2.40;61.50;;;;;;5089634;28;20221;-61
2022/03/04 04:34:40;;;;;;;29.60;14.90;;;-2.40;61.70;;;;;;5090724;28;20175;-61
2022/03/04 04:37:05;;;;;;;33.73;16.20;;;-2.50;62.10;;;;;;5083798;28;20657;-60
2022/03/04 04:39:31;;;;;;;36.27;17.40;;;-2.40;62.60;;;;;;5086242;28;20197;-59
2022/03/04 04:41:57;;;;;;;28.50;15.40;;;-2.50;62.70;;;;;;5083276;28;20233;-60
2022/03/04 04:44:22;;;;;;;34.60;16.60;;;-2.50;62.50;;;;;;5088205;28;20227;-60
2022/03/04 04:46:48;;;;;;;32.40;16.57;;;-2.50;62.40;;;;;;5091332;28;20567;-61
2022/03/04 04:49:13;;;;;;;30.97;16.27;;;-2.50;62.70;;;;;;5090544;28;20272;-61
2022/03/04 04:51:39;;;;;;;29.13;15.73;;;-2.50;63.00;;;;;;5090553;28;20676;-61
2022/03/04 04:54:05;;;;;;;35.10;16.47;;;-2.60;63.10;;;;;;5090758;28;20201;-59
2022/03/04 04:56:30;;;;;;;44.17;14.93;;;-2.60;63.20;;;;;;5085832;28;20188;-59
2022/03/04 04:58:56;;;;;;;36.03;15.07;;;-2.60;63.50;;;;;;5080276;28;20710;-61
2022/03/04 05:01:21;;;;;;;32.33;14.77;;;-2.60;63.40;;;;;;5081739;28;20733;-61
2022/03/04 05:03:47;;;;;;;34.63;17.07;;;-2.60;63.30;;;;;;5085476;28;20175;-62
2022/03/04 05:06:13;;;;;;;30.03;15.33;;;-2.60;63.30;;;;;;5083198;28;20226;-61
2022/03/04 05:08:39;;;;;;;28.70;15.33;;;-2.60;63.20;;;;;;5085572;28;20254;-62
2022/03/04 05:11:05;;;;;;;30.20;14.13;;;-2.60;63.10;;;;;;5082448;28;20772;-61
2022/03/04 05:13:30;;;;;;;28.90;15.00;;;-2.60;62.90;;;;;;5080702;28;20550;-61
2022/03/04 05:15:56;;;;;;;26.50;13.80;;;-2.70;62.30;;;;;;5080634;28;20167;-60
2022/03/04 05:18:22;;;;;;;28.60;15.20;;;-2.70;62.50;;;;;;5081168;28;20167;-60
2022/03/04 05:20:48;;;;;;;29.03;14.70;;;-2.70;63.00;;;;;;5085008;28;20714;-58
2022/03/04 05:23:58;;;;;;;31.13;14.20;;;-2.70;63.20;;;;;;5071930;28;20710;-57
2022/03/04 05:26:02;;;;;;;25.37;14.00;;;-2.70;63.30;;;;;;5078272;28;20271;-56
2022/03/04 05:28:28;;;;;;;27.30;15.00;;;-2.80;63.20;;;;;;5083958;28;20431;-60
2022/03/04 05:30:54;;;;;;;38.83;15.50;;;-2.70;63.10;;;;;;5084106;28;20425;-59
2022/03/04 05:33:19;;;;;;;36.90;16.70;;;-2.80;62.50;;;;;;5076950;28;20235;-59
2022/03/04 05:35:45;;;;;;;44.00;18.27;;;-2.80;62.70;;;;;;5085398;28;20167;-59
2022/03/04 05:38:10;;;;;;;36.30;17.47;;;-2.80;62.30;;;;;;5087803;28;20161;-55
2022/03/04 05:40:36;;;;;;;34.60;16.47;;;-2.90;62.20;;;;;;5080552;28;20178;-59
2022/03/04 05:43:02;;;;;;;38.00;17.93;;;-3.00;62.40;;;;;;5084969;28;20211;-57
2022/03/04 05:45:27;;;;;;;36.17;17.77;;;-3.00;62.80;;;;;;5083103;28;20788;-59
2022/03/04 05:47:53;;;;;;;46.53;17.63;;;-3.10;63.10;;;;;;5088398;28;20650;-57
2022/03/04 05:50:18;;;;;;;39.80;19.70;;;-3.10;63.80;;;;;;5084814;28;20205;-59
2022/03/04 05:52:44;;;;;;;39.20;19.13;;;-3.10;64.60;;;;;;5086907;28;20194;-59
2022/03/04 05:55:10;;;;;;;44.00;19.80;;;-3.10;64.50;;;;;;5079592;28;20175;-58
2022/03/04 05:57:35;;;;;;;41.23;18.87;;;-3.10;64.80;;;;;;5083420;28;20198;-60
2022/03/04 06:00:01;;;;;;;33.57;16.43;;;-3.10;64.80;;;;;;5087735;28;20421;-60
2022/03/04 06:02:28;;;;;;;36.43;15.80;;;-3.10;64.80;;;;;;5083834;28;20697;-59
2022/03/04 06:04:54;;;;;;;34.60;17.10;;;-3.00;64.70;;;;;;5084987;28;20265;-60
2022/03/04 06:07:20;;;;;;;33.20;15.63;;;-3.10;64.40;;;;;;5081655;28;20517;-60
2022/03/04 06:09:45;;;;;;;41.50;16.87;;;-3.00;64.40;;;;;;5074728;28;20183;-60
2022/03/04 06:12:11;;;;;;;36.67;15.53;;;-3.10;64.10;;;;;;5089783;28;20208;-59
2022/03/04 06:14:36;;;;;;;40.40;16.97;;;-3.10;64.20;;;;;;5080130;28;20178;-60
2022/03/04 06:17:04;;;;;;;35.90;15.27;;;-3.10;64.80;;;;;;5080693;28;21451;-59
2022/03/04 06:19:30;;;;;;;42.23;16.20;;;-3.10;65.20;;;;;;5082329;28;20172;-59
2022/03/04 06:21:55;;;;;;;46.00;15.80;;;-3.10;65.40;;;;;;5090714;28;20503;-61
2022/03/04 06:24:21;;;;;;;28.17;14.87;;;-3.10;65.50;;;;;;5087886;28;20710;-61
2022/03/04 06:26:46;;;;;;;39.43;17.27;;;-3.10;65.30;;;;;;5080213;28;20232;-61
2022/03/04 06:29:12;;;;;;;35.83;16.30;;;-3.10;65.20;;;;;;5084883;28;20178;-61
2022/03/04 06:31:38;;;;;;;46.87;14.77;;;-3.10;64.90;;;;;;5087989;28;20216;-61
2022/03/04 06:34:03;;;;;;;33.30;16.70;;;-3.10;65.30;;;;;;5080115;28;20345;-61
2022/03/04 06:36:29;;;;;;;41.67;15.63;;;-3.20;66.10;;;;;;5080651;28;20183;-60
2022/03/04 06:38:55;;;;;;;34.43;17.40;;;-3.20;66.20;;;;;;5083299;28;20181;-60
2022/03/04 06:41:21;;;;;;;39.87;17.13;;;-3.10;65.80;;;;;;5084119;28;20240;-58
2022/03/04 06:43:48;;;;;;;37.10;16.53;;;-3.10;65.70;;;;;;5077977;28;20979;-60
2022/03/04 06:46:15;;;;;;;41.03;17.20;;;-3.10;66.20;;;;;;5087405;28;20179;-60
2022/03/04 06:48:40;;;;;;;35.20;15.93;;;-3.10;67.00;;;;;;5085946;28;20463;-58
2022/03/04 06:51:06;;;;;;;34.30;17.13;;;-3.10;67.60;;;;;;5087810;28;20457;-58
2022/03/04 06:53:31;;;;;;;33.70;16.67;;;-3.10;67.70;;;;;;5084627;28;20191;-59
2022/03/04 06:55:57;;;;;;;42.80;17.90;;;-3.10;68.40;;;;;;5085566;28;20223;-59
2022/03/04 06:58:23;;;;;;;34.37;16.60;;;-3.00;70.10;;;;;;5080300;28;20175;-59
2022/03/04 07:00:49;;;;;;;36.43;17.57;;;-3.00;70.10;;;;;;5081773;28;21210;-59
2022/03/04 07:03:15;;;;;;;39.03;18.50;;;-2.90;69.60;;;;;;5084521;28;20858;-59
2022/03/04 07:05:41;;;;;;;31.20;17.07;;;-2.80;68.70;;;;;;5087116;28;20575;-59
2022/03/04 07:08:07;;;;;;;37.73;17.53;;;-2.70;68.40;;;;;;5080163;28;20460;-59
2022/03/04 07:10:34;;;;;;;34.87;17.90;;;-2.60;67.90;;;;;;5077035;28;20425;-59
2022/03/04 07:13:00;;;;;;;36.17;17.90;;;-2.50;67.50;;;;;;5083780;28;20448;-59
2022/03/04 07:15:26;;;;;;;34.10;16.80;;;-2.40;67.20;;;;;;5093408;28;20446;-60
2022/03/04 07:17:52;;;;;;;37.47;18.10;;;-2.40;67.40;;;;;;5085549;28;20668;-60
2022/03/04 07:20:17;;;;;;;45.50;18.23;;;-2.30;66.80;;;;;;5084880;28;20181;-60
2022/03/04 07:22:43;;;;;;;47.03;21.03;;;-2.20;66.70;;;;;;5082164;28;20810;-61
2022/03/04 07:25:12;;;;;;;39.43;18.30;;;-2.10;66.50;;;;;;5077910;28;20179;-60
2022/03/04 07:27:38;;;;;;;47.27;19.90;;;-2.00;66.20;;;;;;5076509;28;20689;-60
2022/03/04 07:30:09;;;;;;;51.53;20.47;;;-2.00;65.80;;;;;;5075210;28;20442;-60
2022/03/04 07:32:35;;;;;;;62.67;21.17;;;-1.90;66.00;;;;;;5080089;28;21393;-62
2022/03/04 07:35:01;;;;;;;48.93;20.93;;;-1.80;66.50;;;;;;5078899;28;21094;-63
2022/03/04 07:37:27;;;;;;;37.57;17.90;;;-1.70;66.60;;;;;;5081037;28;20183;-62
2022/03/04 07:39:52;;;;;;;56.43;19.70;;;-1.60;67.30;;;;;;5077055;28;20962;-60
2022/03/04 07:42:18;;;;;;;41.53;17.50;;;-1.50;66.60;;;;;;5080436;28;20285;-60
2022/03/04 07:44:44;;;;;;;55.30;21.20;;;-1.40;66.50;;;;;;5080522;28;20254;-60
2022/03/04 07:47:10;;;;;;;57.20;19.50;;;-1.30;66.00;;;;;;5078651;28;20222;-60
2022/03/04 07:49:35;;;;;;;42.40;19.47;;;-1.20;65.70;;;;;;5078760;28;20432;-60
2022/03/04 07:52:01;;;;;;;37.63;19.50;;;-1.20;65.50;;;;;;5082877;28;20200;-60
2022/03/04 07:54:27;;;;;;;39.20;18.50;;;-1.10;65.30;;;;;;5084242;28;20233;-60
2022/03/04 07:56:52;;;;;;;42.50;19.73;;;-1.00;63.80;;;;;;5085197;28;20179;-60
2022/03/04 07:59:19;;;;;;;41.43;20.03;;;-0.90;63.00;;;;;;5077223;28;20699;-61
2022/03/04 08:01:45;;;;;;;42.30;19.30;;;-0.90;61.30;;;;;;5082779;28;20195;-59
2022/03/04 08:04:11;;;;;;;40.27;19.17;;;-0.80;60.40;;;;;;5080970;28;20429;-57
2022/03/04 08:06:38;;;;;;;35.00;18.97;;;-0.80;60.00;;;;;;5080915;28;20658;-61
2022/03/04 08:09:04;;;;;;;37.27;17.60;;;-0.70;59.80;;;;;;5082406;28;20440;-61
2022/03/04 08:11:30;;;;;;;37.50;17.53;;;-0.60;59.40;;;;;;5090701;28;20872;-61
2022/03/04 08:13:56;;;;;;;35.53;17.87;;;-0.50;59.70;;;;;;5089033;28;20466;-61
2022/03/04 08:16:24;;;;;;;42.43;17.57;;;-0.40;58.70;;;;;;5089696;28;20601;-60
2022/03/04 08:18:50;;;;;;;38.57;17.97;;;-0.30;58.70;;;;;;5088850;28;20260;-60
2022/03/04 08:21:15;;;;;;;32.93;17.90;;;-0.20;58.40;;;;;;5079164;28;20444;-61
2022/03/04 08:23:41;;;;;;;32.33;17.43;;;-0.10;58.30;;;;;;5085943;28;20442;-60
2022/03/04 08:26:07;;;;;;;37.70;17.20;;;0.00;57.80;;;;;;5087564;28;20173;-61
2022/03/04 08:28:33;;;;;;;35.37;18.10;;;0.20;57.30;;;;;;5086516;28;20184;-61
2022/03/04 08:30:59;;;;;;;32.73;17.73;;;0.30;56.60;;;;;;5077236;28;20190;-59
2022/03/04 08:33:27;;;;;;;45.00;18.10;;;0.40;56.30;;;;;;5085492;28;20469;-59
2022/03/04 08:35:53;;;;;;;41.30;16.93;;;0.50;56.30;;;;;;5083866;28;21013;-60
2022/03/04 08:38:19;;;;;;;29.37;15.70;;;0.60;56.00;;;;;;5084272;28;20425;-63
2022/03/04 08:40:45;;;;;;;31.57;15.23;;;0.70;55.50;;;;;;5090873;28;20787;-61
2022/03/04 08:43:10;;;;;;;36.23;15.50;;;0.90;54.60;;;;;;5091772;28;21038;-60
2022/03/04 08:45:36;;;;;;;32.40;16.03;;;1.00;53.80;;;;;;5090293;28;20267;-60
2022/03/04 08:48:06;;;;;;;32.63;16.33;;;1.30;53.10;;;;;;5091484;28;20194;-61
2022/03/04 08:50:33;;;;;;;33.40;15.87;;;1.40;52.80;;;;;;5089487;28;20490;-61
2022/03/04 08:53:02;;;;;;;33.20;15.53;;;1.60;52.20;;;;;;5071631;28;20455;-59
2022/03/04 08:55:30;;;;;;;29.73;14.50;;;1.70;51.20;;;;;;5081268;28;20413;-61
2022/03/04 08:57:57;;;;;;;33.83;16.13;;;1.90;50.80;;;;;;5091625;28;20450;-61
2022/03/04 09:00:23;;;;;;;35.40;17.07;;;2.10;50.60;;;;;;5091684;28;20446;-60
2022/03/04 09:02:49;;;;;;;32.90;15.20;;;2.20;49.20;;;;;;5083378;28;21067;-61
2022/03/04 09:05:15;;;;;;;28.20;15.13;;;2.40;49.00;;;;;;5087045;28;20410;-61
2022/03/04 09:07:41;;;;;;;30.27;15.80;;;2.50;48.50;;;;;;5084924;28;20528;-61
2022/03/04 09:10:08;;;;;;;31.13;14.90;;;2.60;47.70;;;;;;5091529;28;20410;-61
2022/03/04 09:12:34;;;;;;;30.20;15.07;;;2.80;47.70;;;;;;5088613;28;20202;-59
2022/03/04 09:14:59;;;;;;;30.47;14.93;;;2.90;47.50;;;;;;5086053;28;20929;-61
2022/03/04 09:17:25;;;;;;;26.80;14.10;;;3.10;47.10;;;;;;5070968;28;20167;-60
2022/03/04 09:19:51;;;;;;;33.43;16.13;;;3.20;46.70;;;;;;5081946;28;20187;-61
2022/03/04 09:22:16;;;;;;;24.60;13.60;;;3.30;46.30;;;;;;5090374;28;20182;-61
2022/03/04 09:24:42;;;;;;;28.70;15.03;;;3.40;45.50;;;;;;5090608;28;20247;-61
2022/03/04 09:27:08;;;;;;;32.30;14.67;;;3.60;44.80;;;;;;5076849;28;20531;-60
2022/03/04 09:29:34;;;;;;;28.40;14.07;;;3.70;44.30;;;;;;5090216;28;20166;-61
2022/03/04 09:32:00;;;;;;;34.30;15.20;;;3.80;44.10;;;;;;5086935;28;20458;-61
2022/03/04 09:34:25;;;;;;;26.87;12.70;;;4.00;43.50;;;;;;5080068;28;20979;-61
2022/03/04 09:36:51;;;;;;;24.30;12.23;;;4.10;43.80;;;;;;5091013;28;20199;-60
2022/03/04 09:39:17;;;;;;;25.73;12.63;;;4.20;43.40;;;;;;5073286;28;20170;-61
2022/03/04 09:41:45;;;;;;;25.67;12.27;;;4.40;42.90;;;;;;5087624;28;20642;-60
2022/03/04 09:44:15;;;;;;;28.97;13.23;;;4.50;42.80;;;;;;5089245;28;20174;-61
2022/03/04 09:46:42;;;;;;;24.40;13.17;;;4.60;42.90;;;;;;5090585;28;20741;-60
2022/03/04 09:49:09;;;;;;;22.37;12.23;;;4.80;42.80;;;;;;5091422;28;20540;-61
2022/03/04 09:51:35;;;;;;;23.97;12.27;;;4.90;42.30;;;;;;5089938;28;20484;-61
2022/03/04 09:54:01;;;;;;;22.67;12.03;;;5.00;40.60;;;;;;5090379;28;20452;-61
2022/03/04 09:56:27;;;;;;;26.37;13.37;;;5.10;40.30;;;;;;5088566;28;20427;-61
2022/03/04 09:58:54;;;;;;;24.10;12.03;;;5.20;40.70;;;;;;5090556;28;20416;-61
2022/03/04 10:01:20;;;;;;;28.00;12.90;;;5.30;40.20;;;;;;5088306;28;20315;-61
2022/03/04 10:03:48;;;;;;;24.97;12.90;;;5.40;40.50;;;;;;5088359;28;20416;-61
2022/03/04 10:06:15;;;;;;;26.20;13.33;;;5.50;40.20;;;;;;5089126;28;20619;-61
2022/03/04 10:08:52;;;;;;;22.50;12.13;;;5.60;40.30;;;;;;5083084;28;20423;-62
2022/03/04 10:11:30;;;;;;;21.83;11.00;;;5.70;39.80;;;;;;5070212;28;20470;-60
2022/03/04 10:13:59;;;;;;;19.07;10.47;;;5.80;39.00;;;;;;5085186;28;20622;-61
2022/03/04 10:16:28;;;;;;;21.03;11.70;;;5.90;37.40;;;;;;5089767;28;21007;-61
2022/03/04 10:19:24;;;;;;;22.13;12.30;;;6.00;36.50;;;;;;5081734;28;21074;-60
2022/03/04 10:22:00;;;;;;;17.57;10.60;;;6.10;36.50;;;;;;5066364;28;20455;-61
2022/03/04 10:24:32;;;;;;;22.87;12.40;;;6.20;35.20;;;;;;5068050;28;20415;-60
2022/03/04 10:27:06;;;;;;;27.73;12.10;;;6.30;35.00;;;;;;5087187;28;20446;-60
2022/03/04 10:29:35;;;;;;;23.93;11.87;;;6.40;35.30;;;;;;5083569;28;20951;-61
2022/03/04 10:32:10;;;;;;;21.40;11.87;;;6.50;35.50;;;;;;5090012;28;20459;-60
2022/03/04 10:35:06;;;;;;;19.30;10.80;;;6.60;35.00;;;;;;5081316;28;20500;-60
2022/03/04 10:37:52;;;;;;;21.43;11.93;;;6.70;33.60;;;;;;5088886;28;20499;-60
2022/03/04 10:40:23;;;;;;;20.20;11.10;;;6.80;33.90;;;;;;5088987;28;20509;-60
2022/03/04 10:42:55;;;;;;;19.70;10.17;;;6.90;34.30;;;;;;5078256;28;20441;-60
2022/03/04 10:45:28;;;;;;;21.53;10.40;;;7.10;33.10;;;;;;5088213;28;20902;-62
2022/03/04 10:47:56;;;;;;;24.10;10.70;;;7.20;32.40;;;;;;5090210;28;20420;-60
2022/03/04 10:50:38;;;;;;;20.47;10.10;;;7.20;31.40;;;;;;5090702;28;20419;-62
2022/03/04 10:53:11;;;;;;;18.20;10.33;;;7.30;31.60;;;;;;5089019;28;20490;-60
2022/03/04 10:55:40;;;;;;;26.10;11.30;;;7.40;31.20;;;;;;5088662;28;20432;-60
2022/03/04 10:58:13;;;;;;;16.83;9.97;;;7.60;30.80;;;;;;5088412;28;20419;-61
2022/03/04 11:00:43;;;;;;;19.50;11.07;;;7.60;30.60;;;;;;5088829;28;20977;-61
2022/03/04 11:03:13;;;;;;;21.57;11.13;;;7.70;30.70;;;;;;5075543;28;20437;-61
2022/03/04 11:05:39;;;;;;;23.40;10.53;;;7.80;31.30;;;;;;5089049;28;20423;-59
2022/03/04 11:08:06;;;;;;;20.87;10.00;;;7.90;30.60;;;;;;5086084;28;21119;-60
2022/03/04 11:10:31;;;;;;;20.30;11.00;;;8.00;30.60;;;;;;5089345;28;20462;-60
2022/03/04 11:12:58;;;;;;;16.87;10.33;;;8.10;30.10;;;;;;5088555;28;20992;-61
2022/03/04 11:15:24;;;;;;;18.43;10.40;;;8.20;29.60;;;;;;5089379;28;20587;-61
2022/03/04 11:17:51;;;;;;;19.13;9.40;;;8.30;29.70;;;;;;5089925;28;20480;-60
2022/03/04 11:20:17;;;;;;;14.00;9.10;;;8.40;29.40;;;;;;5089063;28;20416;-60
2022/03/04 11:22:46;;;;;;;16.77;9.87;;;8.50;29.60;;;;;;5087820;28;20486;-61
2022/03/04 11:25:14;;;;;;;19.83;10.37;;;8.70;29.10;;;;;;5077398;28;20884;-60
2022/03/04 11:27:44;;;;;;;18.27;10.10;;;9.00;29.30;;;;;;5088334;28;20485;-61
2022/03/04 11:30:33;;;;;;;12.90;7.43;;;9.30;29.40;;;;;;5089578;28;21101;-60
2022/03/04 11:33:04;;;;;;;16.13;8.23;;;9.70;27.90;;;;;;5081911;28;20543;-61
2022/03/04 11:35:42;;;;;;;14.53;8.73;;;10.10;26.30;;;;;;5090179;28;20427;-61
2022/03/04 11:38:12;;;;;;;18.10;9.23;;;10.60;25.70;;;;;;5091200;28;21002;-60
2022/03/04 11:40:48;;;;;;;15.70;8.90;;;11.10;25.00;;;;;;5089760;28;20494;-61
2022/03/04 11:43:37;;;;;;;17.00;9.73;;;11.60;25.00;;;;;;5093239;28;20451;-61
2022/03/04 11:46:03;;;;;;;16.60;10.17;;;12.20;25.10;;;;;;5093181;28;20412;-61
2022/03/04 11:48:29;;;;;;;15.67;9.80;;;12.80;24.90;;;;;;5080080;28;20819;-61
2022/03/04 11:50:56;;;;;;;17.90;10.37;;;13.00;24.10;;;;;;5093353;28;20434;-60
2022/03/04 11:53:23;;;;;;;15.17;9.40;;;13.40;24.80;;;;;;5092580;28;20202;-62
2022/03/04 11:56:07;;;;;;;21.13;10.03;;;13.60;24.00;;;;;;5092053;28;20411;-62
2022/03/04 11:59:07;;;;;;;15.77;8.87;;;13.80;24.00;;;;;;5087468;28;20429;-62
2022/03/04 12:01:37;;;;;;;13.27;8.40;;;14.30;23.20;;;;;;5085133;28;20447;-62
2022/03/04 12:04:07;;;;;;;16.63;9.20;;;14.70;21.90;;;;;;5086109;28;20857;-59
2022/03/04 12:06:33;;;;;;;13.40;9.10;;;15.00;22.10;;;;;;5082236;28;20457;-60
2022/03/04 12:09:27;;;;;;;9.90;7.33;;;15.30;21.80;;;;;;5082594;28;20442;-59
2022/03/04 12:12:11;;;;;;;11.97;8.13;;;15.50;20.60;;;;;;5085336;28;20452;-59
2022/03/04 12:14:52;;;;;;;11.40;7.50;;;15.80;20.00;;;;;;5078596;28;20468;-60
2022/03/04 12:17:18;;;;;;;12.70;8.40;;;16.10;19.90;;;;;;5077567;28;20432;-58
2022/03/04 12:19:45;;;;;;;11.10;8.10;;;16.30;20.20;;;;;;5088229;28;20986;-59
2022/03/04 12:22:15;;;;;;;12.63;8.70;;;16.50;20.30;;;;;;5084964;28;20471;-62
2022/03/04 12:25:01;;;;;;;11.73;7.70;;;16.50;20.50;;;;;;5081443;28;20591;-61
2022/03/04 12:27:41;;;;;;;16.90;8.73;;;16.50;20.90;;;;;;5084520;28;20440;-62
2022/03/04 12:30:23;;;;;;;16.60;9.33;;;16.50;21.30;;;;;;5085605;28;20440;-62
2022/03/04 12:32:48;;;;;;;15.27;8.00;;;16.40;20.80;;;;;;5082547;28;20468;-62